Terminal Aerodrome Forecast
Issued by NWS

Home | Current Version | Previous Version | Text Only | Print | Product List | Glossary On
Versions: 1 2 3 4 5 6 7 8 9 10 11 12 13 14 15 16
724
FTUS44 KLZK 290544
TAFLIT
TAF
KLIT 290544Z 2906/3006 06005KT P6SM SCT120 BKN250
     FM290900 06006KT P6SM SCT050 OVC100
     FM291300 08008KT P6SM VCTS SCT015CB OVC040
      TEMPO 2914/2918 4SM TSRA BR BKN012CB
     FM291800 12008KT 5SM -TSRA BR OVC015CB
     FM300200 14009G16KT 6SM -TSRA BR OVC025CB=

USA.gov is the U.S. government's official web portal to all federal, state and local government web resources and services.